createdAt,value
2017-09-23T00:01:18.861Z,9.63
2017-09-23T00:03:46.729Z,10.63
2017-09-23T00:06:14.597Z,9.55
2017-09-23T00:08:42.464Z,9.80
2017-09-23T00:11:10.267Z,11.38
2017-09-23T00:13:38.914Z,11.98
2017-09-23T00:16:06.886Z,10.98
2017-09-23T00:18:34.752Z,10.20
2017-09-23T00:21:02.619Z,10.90
2017-09-23T00:23:30.486Z,11.27
2017-09-23T00:25:58.354Z,11.75
2017-09-23T00:28:26.222Z,10.32
2017-09-23T00:30:54.092Z,11.57
2017-09-23T00:33:21.955Z,10.05
2017-09-23T00:35:49.823Z,10.30
2017-09-23T00:38:17.793Z,9.75
2017-09-23T00:40:45.660Z,10.30
2017-09-23T00:43:13.532Z,10.57
2017-09-23T00:45:41.395Z,10.30
2017-09-23T00:48:09.266Z,9.80
2017-09-23T00:50:37.129Z,7.78
2017-09-23T00:53:04.997Z,8.05
2017-09-23T00:55:32.863Z,8.93
2017-09-23T00:58:00.738Z,8.80
2017-09-23T01:00:28.598Z,9.82
2017-09-23T01:02:56.467Z,9.20
2017-09-23T01:05:24.337Z,8.68
2017-09-23T01:07:52.409Z,9.13
2017-09-23T01:10:20.276Z,8.95
2017-09-23T01:12:48.140Z,9.32
2017-09-23T01:15:16.012Z,10.25
2017-09-23T01:17:43.879Z,8.68
2017-09-23T01:20:11.745Z,10.15
2017-09-23T01:22:39.711Z,9.82
2017-09-23T01:25:07.579Z,10.13
2017-09-23T01:27:35.447Z,9.30
2017-09-23T01:30:03.313Z,10.63
2017-09-23T01:32:31.181Z,10.70
2017-09-23T01:34:59.048Z,10.07
2017-09-23T01:37:26.915Z,10.10
2017-09-23T01:39:54.783Z,11.90
2017-09-23T01:42:22.548Z,11.20
2017-09-23T01:44:50.415Z,10.88
2017-09-23T01:47:18.282Z,11.85
2017-09-23T01:49:46.150Z,10.00
2017-09-23T01:52:14.016Z,13.18
2017-09-23T01:54:41.883Z,12.23
2017-09-23T01:57:09.683Z,11.65
2017-09-23T01:59:38.335Z,12.05
2017-09-23T02:02:06.203Z,10.40
2017-09-23T02:04:34.070Z,11.75
2017-09-23T02:07:01.942Z,11.23
2017-09-23T02:09:29.807Z,11.07
2017-09-23T02:11:57.675Z,10.20
2017-09-23T02:14:25.539Z,11.10
2017-09-23T02:16:53.406Z,10.77
2017-09-23T02:19:21.273Z,11.80
2017-09-23T02:21:49.140Z,10.63
2017-09-23T02:24:17.008Z,10.13
2017-09-23T02:26:44.876Z,10.00
2017-09-23T02:29:12.748Z,10.70
2017-09-23T02:31:40.618Z,9.07
2017-09-23T02:34:08.477Z,10.77
2017-09-23T02:36:36.344Z,9.73
2017-09-23T02:39:04.315Z,9.02
2017-09-23T02:41:32.182Z,8.93
2017-09-23T02:44:00.050Z,11.30
2017-09-23T02:46:27.917Z,11.57
2017-09-23T02:48:55.784Z,10.85
2017-09-23T02:51:23.650Z,10.32
2017-09-23T02:53:51.519Z,10.45
2017-09-23T02:56:19.429Z,10.57
2017-09-23T02:58:48.071Z,9.43
2017-09-23T03:01:15.939Z,9.65
2017-09-23T03:03:43.806Z,9.77
2017-09-23T03:06:11.674Z,10.27
2017-09-23T03:08:39.544Z,8.60
2017-09-23T03:11:07.408Z,10.95
2017-09-23T03:13:35.275Z,9.02
2017-09-23T03:16:03.143Z,9.25
2017-09-23T03:18:31.009Z,8.52
2017-09-23T03:20:58.878Z,8.20
2017-09-23T03:23:26.746Z,10.65
2017-09-23T03:25:54.612Z,9.98
2017-09-23T03:28:22.479Z,10.07
2017-09-23T03:33:25.012Z,9.70
2017-09-23T03:35:53.508Z,9.70
2017-09-23T03:38:21.235Z,9.65
2017-09-23T03:40:48.967Z,9.65
2017-09-23T03:43:16.718Z,9.30
2017-09-23T03:45:44.438Z,10.23
2017-09-23T03:48:12.154Z,9.88
2017-09-23T03:50:40.047Z,10.30
2017-09-23T03:53:07.911Z,10.30
2017-09-23T03:55:35.778Z,9.70
2017-09-23T03:58:03.543Z,10.80
2017-09-23T04:00:31.411Z,9.70
2017-09-23T04:02:59.278Z,9.13
2017-09-23T04:05:27.145Z,10.05
2017-09-23T04:07:55.014Z,9.63
2017-09-23T04:10:22.879Z,9.15
2017-09-23T04:12:50.750Z,9.20
2017-09-23T04:15:18.617Z,11.52
2017-09-23T04:17:46.483Z,10.70
2017-09-23T04:20:14.355Z,10.57
2017-09-23T04:22:42.221Z,9.05
2017-09-23T04:25:10.042Z,9.25
2017-09-23T04:27:37.852Z,10.07
2017-09-23T04:30:05.765Z,9.63
2017-09-23T04:32:34.403Z,9.40
2017-09-23T04:35:16.401Z,10.35
2017-09-23T04:37:44.268Z,9.15
2017-09-23T04:40:12.136Z,10.73
2017-09-23T04:42:40.030Z,9.98
2017-09-23T04:45:08.690Z,10.38
2017-09-23T04:47:36.557Z,9.77
2017-09-23T04:50:04.425Z,10.25
2017-09-23T04:52:32.290Z,10.57
2017-09-23T04:55:00.159Z,10.60
2017-09-23T04:57:28.063Z,8.00
2017-09-23T04:59:56.713Z,7.70
2017-09-23T05:02:24.580Z,8.32
2017-09-23T05:04:52.448Z,10.45
2017-09-23T05:07:20.314Z,9.75
2017-09-23T05:09:51.825Z,9.38
2017-09-23T05:12:22.029Z,8.95
2017-09-23T05:14:55.990Z,8.32
2017-09-23T05:17:28.282Z,8.45
2017-09-23T05:19:59.960Z,7.37
2017-09-23T05:22:32.822Z,7.20
2017-09-23T05:25:05.072Z,7.80
2017-09-23T05:27:37.281Z,6.70
2017-09-23T05:30:09.484Z,7.75
2017-09-23T05:32:40.559Z,8.43
2017-09-23T05:35:12.211Z,9.63
2017-09-23T05:37:43.329Z,8.25
2017-09-23T05:40:11.744Z,7.90
2017-09-23T05:42:41.880Z,8.20
2017-09-23T05:45:13.474Z,9.43
2017-09-23T05:47:44.566Z,12.37
2017-09-23T05:50:16.745Z,9.30
2017-09-23T05:52:47.551Z,10.70
2017-09-23T05:55:15.535Z,9.65
2017-09-23T05:57:43.404Z,10.30
2017-09-23T06:00:11.270Z,10.68
2017-09-23T06:02:39.138Z,10.55
2017-09-23T06:05:07.005Z,9.30
2017-09-23T06:07:34.872Z,10.63
2017-09-23T06:10:02.739Z,10.10
2017-09-23T06:12:30.606Z,10.02
2017-09-23T06:14:58.473Z,12.13
2017-09-23T06:17:26.443Z,10.00
2017-09-23T06:19:54.310Z,8.50
2017-09-23T06:22:22.178Z,9.27
2017-09-23T06:24:50.045Z,9.63
2017-09-23T06:27:17.915Z,13.62
2017-09-23T06:29:45.779Z,10.07
2017-09-23T06:32:13.648Z,11.15
2017-09-23T06:34:41.514Z,9.75
2017-09-23T06:37:09.382Z,9.82
2017-09-23T06:39:37.249Z,10.75
2017-09-23T06:42:05.117Z,10.43
2017-09-23T06:44:32.984Z,10.35
2017-09-23T06:47:00.851Z,11.00
2017-09-23T06:49:28.718Z,11.27
2017-09-23T06:51:56.588Z,10.35
2017-09-23T06:54:24.454Z,10.57
2017-09-23T06:56:52.321Z,10.35
2017-09-23T06:59:20.188Z,9.25
2017-09-23T07:01:48.158Z,8.57
2017-09-23T07:04:16.025Z,9.27
2017-09-23T07:06:43.892Z,10.02
2017-09-23T07:09:11.760Z,10.25
2017-09-23T07:11:39.626Z,9.23
2017-09-23T07:14:07.494Z,10.00
2017-09-23T07:16:35.364Z,9.48
2017-09-23T07:19:03.231Z,9.45
2017-09-23T07:21:31.097Z,9.73
2017-09-23T07:24:00.298Z,10.23
2017-09-23T07:26:28.504Z,11.12
2017-09-23T07:28:57.157Z,10.13
2017-09-23T07:31:25.025Z,11.12
2017-09-23T07:33:52.993Z,13.15
2017-09-23T07:36:20.860Z,12.40
2017-09-23T07:38:48.726Z,14.65
2017-09-23T07:41:16.594Z,15.63
2017-09-23T07:43:44.465Z,15.02
2017-09-23T07:46:12.329Z,14.73
2017-09-23T07:48:40.198Z,15.88
2017-09-23T07:51:08.064Z,16.80
2017-09-23T07:53:35.931Z,18.70
2017-09-23T07:56:03.798Z,18.25
2017-09-23T07:58:31.666Z,20.80
2017-09-23T08:00:59.430Z,20.05
2017-09-23T08:03:27.401Z,19.90
2017-09-23T08:05:55.271Z,20.12
2017-09-23T08:08:23.236Z,19.58
2017-09-23T08:10:51.104Z,19.98
2017-09-23T08:13:18.974Z,20.08
2017-09-23T08:15:46.838Z,21.20
2017-09-23T08:18:14.706Z,19.85
2017-09-23T08:20:42.573Z,19.90
2017-09-23T08:23:10.441Z,19.83
2017-09-23T08:25:38.414Z,20.65
2017-09-23T08:28:06.588Z,21.23
2017-09-23T08:30:34.451Z,20.45
2017-09-23T08:33:02.320Z,20.33
2017-09-23T08:35:30.187Z,19.85
2017-09-23T08:37:58.053Z,20.73
2017-09-23T08:40:25.922Z,22.20
2017-09-23T08:42:53.787Z,20.55
2017-09-23T08:45:21.654Z,21.80
2017-09-23T08:47:49.521Z,21.73
2017-09-23T08:50:17.389Z,21.45
2017-09-23T08:52:45.257Z,21.27
2017-09-23T08:55:13.124Z,22.08
2017-09-23T08:57:40.990Z,20.90
2017-09-23T09:00:08.857Z,21.75
2017-09-23T09:02:36.724Z,22.62
2017-09-23T09:05:04.591Z,20.75
2017-09-23T09:07:32.459Z,21.02
2017-09-23T09:10:00.326Z,20.15
2017-09-23T09:12:28.199Z,20.25
2017-09-23T09:14:56.060Z,19.70
2017-09-23T09:17:23.933Z,19.08
2017-09-23T09:19:51.797Z,17.87
2017-09-23T09:22:19.667Z,18.35
2017-09-23T09:24:47.529Z,20.30
2017-09-23T09:27:15.396Z,19.40
2017-09-23T09:29:43.263Z,19.15
2017-09-23T09:32:11.137Z,18.75
2017-09-23T09:34:39.000Z,19.62
2017-09-23T09:37:06.864Z,17.85
2017-09-23T09:39:34.732Z,18.37
2017-09-23T09:42:02.599Z,18.33
2017-09-23T09:44:30.466Z,18.95
2017-09-23T09:46:58.333Z,17.95
2017-09-23T09:49:26.202Z,17.77
2017-09-23T09:51:54.069Z,18.67
2017-09-23T09:54:21.938Z,17.98
2017-09-23T09:56:49.802Z,19.05
2017-09-23T09:59:17.598Z,18.85
2017-09-23T10:01:46.253Z,19.10
2017-09-23T10:04:14.120Z,18.00
2017-09-23T10:06:42.090Z,17.70
2017-09-23T10:09:09.958Z,17.75
2017-09-23T10:11:37.824Z,18.92
2017-09-23T10:14:05.693Z,18.27
2017-09-23T10:16:33.558Z,19.27
2017-09-23T10:19:01.426Z,17.87
2017-09-23T10:21:29.397Z,19.10
2017-09-23T10:23:57.263Z,19.33
2017-09-23T10:26:25.142Z,19.33
2017-09-23T10:28:53.000Z,19.37
2017-09-23T10:31:20.869Z,19.27
2017-09-23T10:33:48.735Z,18.05
2017-09-23T10:36:16.601Z,19.33
2017-09-23T10:38:44.569Z,19.12
2017-09-23T10:41:12.440Z,18.42
2017-09-23T10:43:40.308Z,20.05
2017-09-23T10:46:08.176Z,19.87
2017-09-23T10:48:36.040Z,19.10
2017-09-23T10:51:03.907Z,17.95
2017-09-23T10:53:31.772Z,19.52
2017-09-23T10:55:59.640Z,18.95
2017-09-23T10:58:27.507Z,18.83
2017-09-23T11:00:55.375Z,17.80
2017-09-23T11:03:23.242Z,17.00
2017-09-23T11:05:51.109Z,17.67
2017-09-23T11:08:18.976Z,17.12
2017-09-23T11:10:46.844Z,15.93
2017-09-23T11:13:14.813Z,17.45
2017-09-23T11:15:42.783Z,16.67
2017-09-23T11:18:10.651Z,16.90
2017-09-23T11:20:38.518Z,16.98
2017-09-23T11:23:06.385Z,17.60
2017-09-23T11:25:34.251Z,16.60
2017-09-23T11:28:02.221Z,16.48
2017-09-23T11:30:30.089Z,16.05
2017-09-23T11:32:57.955Z,17.15
2017-09-23T11:35:25.823Z,16.20
2017-09-23T11:37:53.690Z,17.00
2017-09-23T11:40:21.558Z,15.75
2017-09-23T11:42:49.425Z,14.50
2017-09-23T11:45:17.292Z,16.62
2017-09-23T11:47:45.161Z,15.93
2017-09-23T11:50:13.028Z,16.15
2017-09-23T11:52:40.894Z,14.45
2017-09-23T11:55:08.762Z,14.10
2017-09-23T11:57:36.628Z,13.73
2017-09-23T12:00:04.497Z,13.30
2017-09-23T12:02:32.363Z,13.40
2017-09-23T12:05:00.231Z,12.65
2017-09-23T12:07:28.235Z,12.68
2017-09-23T12:09:56.887Z,12.55
2017-09-23T12:12:24.685Z,12.88
2017-09-23T12:14:53.339Z,12.43
2017-09-23T12:17:21.208Z,12.98
2017-09-23T12:19:49.073Z,14.13
2017-09-23T12:22:16.939Z,15.88
2017-09-23T12:24:44.807Z,13.73
2017-09-23T12:27:13.463Z,12.30
2017-09-23T12:29:41.182Z,13.65
2017-09-23T12:32:09.023Z,12.35
2017-09-23T12:34:36.891Z,13.60
2017-09-23T12:37:04.757Z,13.65
2017-09-23T12:39:32.830Z,13.30
2017-09-23T12:42:00.697Z,14.30
2017-09-23T12:44:28.565Z,12.65
2017-09-23T12:46:56.432Z,11.10
2017-09-23T12:49:24.299Z,13.88
2017-09-23T12:51:52.268Z,13.35
2017-09-23T12:54:20.136Z,14.00
2017-09-23T12:56:48.003Z,14.50
2017-09-23T12:59:15.871Z,14.40
2017-09-23T13:01:43.636Z,13.98
2017-09-23T13:04:11.501Z,15.77
2017-09-23T13:06:39.369Z,13.95
2017-09-23T13:09:07.237Z,16.23
2017-09-23T13:11:35.206Z,14.55
2017-09-23T13:14:03.080Z,15.93
2017-09-23T13:16:30.941Z,15.95
2017-09-23T13:18:58.809Z,15.60
2017-09-23T13:21:26.779Z,14.68
2017-09-23T13:23:54.646Z,15.38
2017-09-23T13:26:22.761Z,15.30
2017-09-23T13:28:51.404Z,14.32
2017-09-23T13:31:19.271Z,13.05
2017-09-23T13:33:47.139Z,13.62
2017-09-23T13:36:15.006Z,15.02
2017-09-23T13:38:43.078Z,13.98
2017-09-23T13:41:10.945Z,14.00
2017-09-23T13:43:38.819Z,11.93
2017-09-23T13:46:06.684Z,14.38
2017-09-23T13:48:34.551Z,14.20
2017-09-23T13:51:02.420Z,14.43
2017-09-23T13:53:30.286Z,14.30
2017-09-23T13:55:58.154Z,13.15
2017-09-23T13:58:26.019Z,14.40
2017-09-23T14:00:53.884Z,13.13
2017-09-23T14:03:21.753Z,13.93
2017-09-23T14:05:49.618Z,13.48
2017-09-23T14:08:17.485Z,14.23
2017-09-23T14:10:45.352Z,13.40
2017-09-23T14:13:13.221Z,12.37
2017-09-23T14:15:41.087Z,14.05
2017-09-23T14:18:08.955Z,14.80
2017-09-23T14:20:36.822Z,13.90
2017-09-23T14:23:04.690Z,15.45
2017-09-23T14:25:32.557Z,12.80
2017-09-23T14:28:00.424Z,13.95
2017-09-23T14:30:28.290Z,14.00
2017-09-23T14:32:56.160Z,12.93
2017-09-23T14:35:24.025Z,13.43
2017-09-23T14:37:51.892Z,12.95
2017-09-23T14:40:19.792Z,11.70
2017-09-23T14:42:48.447Z,11.77
2017-09-23T14:45:16.348Z,11.55
2017-09-23T14:47:45.001Z,11.63
2017-09-23T14:50:12.868Z,12.20
2017-09-23T14:52:40.736Z,10.80
2017-09-23T14:55:08.602Z,11.98
2017-09-23T14:57:36.470Z,12.20
2017-09-23T15:00:04.337Z,11.65
2017-09-23T15:02:32.204Z,11.32
2017-09-23T15:05:00.071Z,11.45
2017-09-23T15:07:27.943Z,12.43
2017-09-23T15:09:55.805Z,10.35
2017-09-23T15:12:23.675Z,11.27
2017-09-23T15:14:51.540Z,12.37
2017-09-23T15:17:19.408Z,11.25
2017-09-23T15:19:50.671Z,12.23
2017-09-23T15:22:21.971Z,11.60
2017-09-23T15:24:54.314Z,12.73
2017-09-23T15:27:26.156Z,12.45
2017-09-23T15:29:59.520Z,12.30
2017-09-23T15:32:31.656Z,12.55
2017-09-23T15:35:02.414Z,11.63
2017-09-23T15:37:34.380Z,11.55
2017-09-23T15:40:05.209Z,11.73
2017-09-23T15:42:37.241Z,11.10
2017-09-23T15:45:08.154Z,12.40
2017-09-23T15:47:38.556Z,10.88
2017-09-23T15:50:09.194Z,10.95
2017-09-23T15:52:39.691Z,11.30
2017-09-23T15:55:12.953Z,9.98
2017-09-23T15:57:46.310Z,9.50
2017-09-23T16:00:18.823Z,10.30
2017-09-23T16:02:51.284Z,9.75
2017-09-23T16:05:23.381Z,9.65
2017-09-23T16:07:55.047Z,10.52
2017-09-23T16:10:26.781Z,8.90
2017-09-23T16:12:58.259Z,9.85
2017-09-23T16:15:26.065Z,7.75
2017-09-23T16:17:53.933Z,9.00
2017-09-23T16:20:21.799Z,9.25
2017-09-23T16:22:49.667Z,10.70
2017-09-23T16:25:17.534Z,9.48
2017-09-23T16:27:45.402Z,10.00
2017-09-23T16:30:14.192Z,9.20
2017-09-23T16:32:42.057Z,9.68
2017-09-23T16:35:09.927Z,9.80
2017-09-23T16:37:37.793Z,9.40
2017-09-23T16:40:05.660Z,9.27
2017-09-23T16:42:33.527Z,9.68
2017-09-23T16:45:01.395Z,9.95
2017-09-23T16:47:29.261Z,9.20
2017-09-23T16:49:57.129Z,9.88
2017-09-23T16:52:24.996Z,10.32
2017-09-23T16:54:52.863Z,10.10
2017-09-23T16:57:20.741Z,9.70
2017-09-23T16:59:48.602Z,10.10
2017-09-23T17:02:16.471Z,9.70
2017-09-23T17:04:44.356Z,10.80
2017-09-23T17:07:12.307Z,10.15
2017-09-23T17:09:40.177Z,10.70
2017-09-23T17:12:08.039Z,10.55
2017-09-23T17:14:35.907Z,10.27
2017-09-23T17:17:06.495Z,10.52
2017-09-23T17:19:37.150Z,11.50
2017-09-23T17:22:07.821Z,11.50
2017-09-23T17:24:36.960Z,12.80
2017-09-23T17:27:06.432Z,13.45
2017-09-23T17:29:36.887Z,12.37
2017-09-23T17:32:07.541Z,12.10
2017-09-23T17:34:37.003Z,11.80
2017-09-23T17:37:07.435Z,11.10
2017-09-23T17:39:36.081Z,11.57
2017-09-23T17:42:04.050Z,10.55
2017-09-23T17:44:31.918Z,11.35
2017-09-23T17:46:59.785Z,12.13
2017-09-23T17:49:27.653Z,12.63
2017-09-23T17:51:55.521Z,11.23
2017-09-23T17:54:23.387Z,13.10
2017-09-23T17:56:51.256Z,14.27
2017-09-23T17:59:19.122Z,13.05
2017-09-23T18:01:47.101Z,12.90
2017-09-23T18:04:14.960Z,11.70
2017-09-23T18:06:42.827Z,12.00
2017-09-23T18:09:12.300Z,12.07
2017-09-23T18:11:40.023Z,12.80
2017-09-23T18:14:07.758Z,14.40
2017-09-23T18:16:36.351Z,15.00
2017-09-23T18:19:04.087Z,15.80
2017-09-23T18:21:31.808Z,16.60
2017-09-23T18:24:00.307Z,15.38
2017-09-23T18:26:28.026Z,15.98
2017-09-23T18:28:55.749Z,13.90
2017-09-23T18:31:23.482Z,12.57
2017-09-23T18:33:51.970Z,11.70
2017-09-23T18:36:20.499Z,12.50
2017-09-23T18:38:48.230Z,14.32
2017-09-23T18:41:15.970Z,12.48
2017-09-23T18:43:44.470Z,13.90
2017-09-23T18:46:12.428Z,13.15
2017-09-23T18:48:40.919Z,14.07
2017-09-23T18:51:09.415Z,14.35
2017-09-23T18:53:37.342Z,14.63
2017-09-23T18:56:05.078Z,13.23
2017-09-23T18:58:32.802Z,14.10
2017-09-23T19:01:00.527Z,14.85
2017-09-23T19:03:33.759Z,13.48
2017-09-23T19:06:01.483Z,14.20
2017-09-23T19:08:29.281Z,15.95
2017-09-23T19:10:58.386Z,17.75
2017-09-23T19:13:26.326Z,20.10
2017-09-23T19:15:54.063Z,22.13
2017-09-23T19:18:21.813Z,19.27
2017-09-23T19:20:49.546Z,18.70
2017-09-23T19:23:17.406Z,18.12
2017-09-23T19:25:45.904Z,19.83
2017-09-23T19:28:29.175Z,20.20
2017-09-23T19:31:02.174Z,19.90
2017-09-23T19:33:34.927Z,18.48
2017-09-23T19:36:06.227Z,19.10
2017-09-23T19:38:40.753Z,19.25
2017-09-23T19:41:08.854Z,20.10
2017-09-23T19:43:36.611Z,21.10
2017-09-23T19:46:04.343Z,22.55
2017-09-23T19:48:32.119Z,24.42
2017-09-23T19:51:00.622Z,28.58
2017-09-23T19:53:28.382Z,33.72
2017-09-23T19:55:58.073Z,31.75
2017-09-23T19:58:26.559Z,34.85
2017-09-23T20:00:55.070Z,34.50
2017-09-23T20:03:22.821Z,26.35
2017-09-23T20:05:50.547Z,23.33
2017-09-23T20:08:19.983Z,22.75
2017-09-23T20:10:47.720Z,26.95
2017-09-23T20:13:15.599Z,31.85
2017-09-23T20:15:44.899Z,38.58
2017-09-23T20:18:13.395Z,43.13
2017-09-23T20:20:41.927Z,37.50
2017-09-23T20:23:09.648Z,35.08
2017-09-23T20:25:37.427Z,32.80
2017-09-23T20:28:05.163Z,32.15
2017-09-23T20:30:33.666Z,30.17
2017-09-23T20:33:01.411Z,29.92
2017-09-23T20:35:29.901Z,32.33
2017-09-23T20:37:58.386Z,30.23
2017-09-23T20:40:26.899Z,29.50
2017-09-23T20:42:54.623Z,29.48
2017-09-23T20:45:23.211Z,28.67
2017-09-23T20:47:51.695Z,28.42
2017-09-23T20:50:20.208Z,29.83
2017-09-23T20:52:48.902Z,26.30
2017-09-23T20:55:16.632Z,25.20
2017-09-23T20:57:44.456Z,25.92
2017-09-23T21:00:12.307Z,23.73
2017-09-23T21:02:40.069Z,23.08
2017-09-23T21:05:14.979Z,21.15
2017-09-23T21:07:43.699Z,21.70
2017-09-23T21:10:11.570Z,20.58
2017-09-23T21:12:39.435Z,22.25
2017-09-23T21:15:07.301Z,21.92
2017-09-23T21:17:35.168Z,24.10
2017-09-23T21:20:03.036Z,22.25
2017-09-23T21:22:30.903Z,21.67
2017-09-23T21:24:58.770Z,23.38
2017-09-23T21:27:26.638Z,21.87
2017-09-23T21:29:54.505Z,23.15
2017-09-23T21:32:22.240Z,25.65
2017-09-23T21:34:49.982Z,24.20
2017-09-23T21:37:18.620Z,24.48
2017-09-23T21:39:46.486Z,23.73
2017-09-23T21:42:14.353Z,24.50
2017-09-23T21:44:42.220Z,25.48
2017-09-23T21:47:10.088Z,25.12
2017-09-23T21:49:37.959Z,26.27
2017-09-23T21:52:05.822Z,26.80
2017-09-23T21:54:33.689Z,25.77
2017-09-23T21:57:01.487Z,28.30
2017-09-23T21:59:32.625Z,28.25
2017-09-23T22:02:00.569Z,31.73
2017-09-23T22:04:28.436Z,32.38
2017-09-23T22:06:56.303Z,28.95
2017-09-23T22:09:24.170Z,31.23
2017-09-23T22:11:52.447Z,29.65
2017-09-23T22:14:20.314Z,30.90
2017-09-23T22:16:48.181Z,31.75
2017-09-23T22:19:16.049Z,31.77
2017-09-23T22:21:43.916Z,33.40
2017-09-23T22:24:11.886Z,31.55
2017-09-23T22:26:39.754Z,33.75
2017-09-23T22:29:07.825Z,30.40
2017-09-23T22:31:35.692Z,32.13
2017-09-23T22:34:03.561Z,30.80
2017-09-23T22:36:31.426Z,32.53
2017-09-23T22:38:59.294Z,34.10
2017-09-23T22:41:27.265Z,34.60
2017-09-23T22:43:55.137Z,35.47
2017-09-23T22:46:22.998Z,34.40
2017-09-23T22:48:50.866Z,34.00
2017-09-23T22:51:18.734Z,34.00
2017-09-23T22:53:46.600Z,33.30
2017-09-23T22:56:14.468Z,35.30
2017-09-23T22:58:42.335Z,32.95
2017-09-23T23:01:10.201Z,34.92
2017-09-23T23:03:38.075Z,35.25
2017-09-23T23:06:05.937Z,36.25
2017-09-23T23:08:33.804Z,35.00
2017-09-23T23:11:01.672Z,35.15
2017-09-23T23:13:29.538Z,34.50
2017-09-23T23:15:57.407Z,36.20
2017-09-23T23:18:25.273Z,35.38
2017-09-23T23:20:53.140Z,35.65
2017-09-23T23:23:21.011Z,34.17
2017-09-23T23:25:48.878Z,35.45
2017-09-23T23:28:16.744Z,34.55
2017-09-23T23:30:44.617Z,36.33
2017-09-23T23:33:12.481Z,36.13
2017-09-23T23:35:40.346Z,35.40
2017-09-23T23:38:08.215Z,36.30
2017-09-23T23:40:36.081Z,34.67
2017-09-23T23:43:03.946Z,36.03
2017-09-23T23:45:31.813Z,36.10
2017-09-23T23:47:59.680Z,38.30
2017-09-23T23:50:27.549Z,37.35
2017-09-23T23:52:55.414Z,36.75
2017-09-23T23:55:23.282Z,34.78
2017-09-23T23:57:51.150Z,36.05
